sensor_id;sensor_type;location;lat;lon;timestamp;P1;durP1;ratioP1;P2;durP2;ratioP2
25846;SDS011;13676;50.168;8.568;2023-02-20T00:00:18;5.40;;;4.05;;
25846;SDS011;13676;50.168;8.568;2023-02-20T00:02:47;6.15;;;4.28;;
25846;SDS011;13676;50.168;8.568;2023-02-20T00:05:13;6.35;;;4.47;;
25846;SDS011;13676;50.168;8.568;2023-02-20T00:07:39;5.13;;;4.57;;
25846;SDS011;13676;50.168;8.568;2023-02-20T00:10:05;6.88;;;4.95;;
25846;SDS011;13676;50.168;8.568;2023-02-20T00:12:31;5.03;;;4.38;;
25846;SDS011;13676;50.168;8.568;2023-02-20T00:14:57;7.70;;;5.32;;
25846;SDS011;13676;50.168;8.568;2023-02-20T00:17:22;6.38;;;4.53;;
25846;SDS011;13676;50.168;8.568;2023-02-20T00:19:48;5.65;;;4.78;;
25846;SDS011;13676;50.168;8.568;2023-02-20T00:22:13;7.18;;;4.60;;
25846;SDS011;13676;50.168;8.568;2023-02-20T00:24:38;6.30;;;4.68;;
25846;SDS011;13676;50.168;8.568;2023-02-20T00:27:03;6.10;;;4.95;;
25846;SDS011;13676;50.168;8.568;2023-02-20T00:29:29;5.47;;;4.47;;
25846;SDS011;13676;50.168;8.568;2023-02-20T00:31:55;6.00;;;4.43;;
25846;SDS011;13676;50.168;8.568;2023-02-20T00:34:22;6.45;;;4.75;;
25846;SDS011;13676;50.168;8.568;2023-02-20T00:36:48;7.40;;;5.20;;
25846;SDS011;13676;50.168;8.568;2023-02-20T00:39:13;7.50;;;5.78;;
25846;SDS011;13676;50.168;8.568;2023-02-20T00:41:39;10.27;;;6.65;;
25846;SDS011;13676;50.168;8.568;2023-02-20T00:44:04;10.05;;;6.85;;
25846;SDS011;13676;50.168;8.568;2023-02-20T00:46:30;8.27;;;6.20;;
25846;SDS011;13676;50.168;8.568;2023-02-20T00:48:55;8.18;;;6.40;;
25846;SDS011;13676;50.168;8.568;2023-02-20T00:51:21;13.13;;;7.55;;
25846;SDS011;13676;50.168;8.568;2023-02-20T00:53:46;12.70;;;8.25;;
25846;SDS011;13676;50.168;8.568;2023-02-20T00:56:11;11.63;;;8.27;;
25846;SDS011;13676;50.168;8.568;2023-02-20T00:58:37;10.73;;;7.70;;
25846;SDS011;13676;50.168;8.568;2023-02-20T01:01:02;11.40;;;7.63;;
25846;SDS011;13676;50.168;8.568;2023-02-20T01:03:28;8.95;;;7.68;;
25846;SDS011;13676;50.168;8.568;2023-02-20T01:05:53;14.75;;;8.07;;
25846;SDS011;13676;50.168;8.568;2023-02-20T01:08:20;12.88;;;8.00;;
25846;SDS011;13676;50.168;8.568;2023-02-20T01:10:45;13.75;;;7.70;;
25846;SDS011;13676;50.168;8.568;2023-02-20T01:13:10;10.40;;;7.85;;
25846;SDS011;13676;50.168;8.568;2023-02-20T01:15:36;12.30;;;7.55;;
25846;SDS011;13676;50.168;8.568;2023-02-20T01:18:01;12.32;;;7.93;;
25846;SDS011;13676;50.168;8.568;2023-02-20T01:20:27;8.82;;;6.90;;
25846;SDS011;13676;50.168;8.568;2023-02-20T01:22:52;8.15;;;5.80;;
25846;SDS011;13676;50.168;8.568;2023-02-20T01:25:17;9.77;;;6.97;;
25846;SDS011;13676;50.168;8.568;2023-02-20T01:27:43;9.35;;;7.25;;
25846;SDS011;13676;50.168;8.568;2023-02-20T01:30:08;11.02;;;7.22;;
25846;SDS011;13676;50.168;8.568;2023-02-20T01:32:34;12.23;;;6.80;;
25846;SDS011;13676;50.168;8.568;2023-02-20T01:35:00;11.35;;;7.30;;
25846;SDS011;13676;50.168;8.568;2023-02-20T01:37:25;8.60;;;6.38;;
25846;SDS011;13676;50.168;8.568;2023-02-20T01:39:50;10.23;;;6.40;;
25846;SDS011;13676;50.168;8.568;2023-02-20T01:42:20;7.20;;;5.35;;
25846;SDS011;13676;50.168;8.568;2023-02-20T01:44:47;8.98;;;5.35;;
25846;SDS011;13676;50.168;8.568;2023-02-20T01:47:20;7.03;;;4.80;;
25846;SDS011;13676;50.168;8.568;2023-02-20T01:52:30;7.30;;;5.53;;
25846;SDS011;13676;50.168;8.568;2023-02-20T01:54:59;7.97;;;4.67;;
25846;SDS011;13676;50.168;8.568;2023-02-20T01:57:28;7.47;;;4.75;;
25846;SDS011;13676;50.168;8.568;2023-02-20T01:59:56;8.57;;;5.18;;
25846;SDS011;13676;50.168;8.568;2023-02-20T02:02:25;6.43;;;4.82;;
25846;SDS011;13676;50.168;8.568;2023-02-20T02:04:52;6.68;;;4.55;;
25846;SDS011;13676;50.168;8.568;2023-02-20T02:07:17;7.75;;;4.78;;
25846;SDS011;13676;50.168;8.568;2023-02-20T02:10:06;7.20;;;4.90;;
25846;SDS011;13676;50.168;8.568;2023-02-20T02:12:50;9.50;;;4.82;;
25846;SDS011;13676;50.168;8.568;2023-02-20T02:15:18;7.47;;;4.93;;
25846;SDS011;13676;50.168;8.568;2023-02-20T02:17:50;9.73;;;4.63;;
25846;SDS011;13676;50.168;8.568;2023-02-20T02:26:02;9.00;;;4.70;;
25846;SDS011;13676;50.168;8.568;2023-02-20T02:39:42;7.57;;;5.72;;
25846;SDS011;13676;50.168;8.568;2023-02-20T02:45:30;7.55;;;5.35;;
25846;SDS011;13676;50.168;8.568;2023-02-20T02:50:32;7.10;;;4.90;;
25846;SDS011;13676;50.168;8.568;2023-02-20T02:53:00;9.18;;;5.38;;
25846;SDS011;13676;50.168;8.568;2023-02-20T02:55:28;9.90;;;5.70;;
25846;SDS011;13676;50.168;8.568;2023-02-20T02:57:55;7.28;;;5.53;;
25846;SDS011;13676;50.168;8.568;2023-02-20T03:00:22;9.50;;;6.10;;
25846;SDS011;13676;50.168;8.568;2023-02-20T03:05:42;6.63;;;5.10;;
25846;SDS011;13676;50.168;8.568;2023-02-20T03:08:22;6.03;;;4.78;;
25846;SDS011;13676;50.168;8.568;2023-02-20T03:10:55;9.23;;;5.55;;
25846;SDS011;13676;50.168;8.568;2023-02-20T03:13:23;11.07;;;5.97;;
25846;SDS011;13676;50.168;8.568;2023-02-20T03:16:08;11.23;;;6.72;;
25846;SDS011;13676;50.168;8.568;2023-02-20T03:18:35;12.65;;;6.05;;
25846;SDS011;13676;50.168;8.568;2023-02-20T03:21:10;10.05;;;5.88;;
25846;SDS011;13676;50.168;8.568;2023-02-20T03:23:39;11.63;;;6.10;;
25846;SDS011;13676;50.168;8.568;2023-02-20T03:26:16;8.98;;;6.47;;
25846;SDS011;13676;50.168;8.568;2023-02-20T03:31:12;12.13;;;7.13;;
25846;SDS011;13676;50.168;8.568;2023-02-20T03:36:35;10.25;;;6.68;;
25846;SDS011;13676;50.168;8.568;2023-02-20T03:39:22;14.55;;;7.75;;
25846;SDS011;13676;50.168;8.568;2023-02-20T03:42:09;15.13;;;7.45;;
25846;SDS011;13676;50.168;8.568;2023-02-20T03:44:55;10.30;;;7.03;;
25846;SDS011;13676;50.168;8.568;2023-02-20T03:47:21;14.27;;;7.47;;
25846;SDS011;13676;50.168;8.568;2023-02-20T03:49:47;13.73;;;7.68;;
25846;SDS011;13676;50.168;8.568;2023-02-20T03:52:14;9.90;;;7.07;;
25846;SDS011;13676;50.168;8.568;2023-02-20T03:54:40;12.55;;;7.53;;
25846;SDS011;13676;50.168;8.568;2023-02-20T03:57:07;10.82;;;7.50;;
25846;SDS011;13676;50.168;8.568;2023-02-20T03:59:43;12.07;;;8.07;;
25846;SDS011;13676;50.168;8.568;2023-02-20T04:02:14;12.55;;;8.20;;
25846;SDS011;13676;50.168;8.568;2023-02-20T04:04:47;11.85;;;7.45;;
25846;SDS011;13676;50.168;8.568;2023-02-20T04:07:15;10.50;;;7.40;;
25846;SDS011;13676;50.168;8.568;2023-02-20T04:09:45;9.73;;;7.70;;
25846;SDS011;13676;50.168;8.568;2023-02-20T04:12:19;14.52;;;8.55;;
25846;SDS011;13676;50.168;8.568;2023-02-20T04:14:47;10.85;;;7.07;;
25846;SDS011;13676;50.168;8.568;2023-02-20T04:17:15;13.70;;;8.23;;
25846;SDS011;13676;50.168;8.568;2023-02-20T04:19:44;11.35;;;7.13;;
25846;SDS011;13676;50.168;8.568;2023-02-20T04:22:11;14.73;;;8.05;;
25846;SDS011;13676;50.168;8.568;2023-02-20T04:24:41;15.85;;;8.00;;
25846;SDS011;13676;50.168;8.568;2023-02-20T04:27:09;13.93;;;7.90;;
25846;SDS011;13676;50.168;8.568;2023-02-20T04:29:35;12.85;;;7.38;;
25846;SDS011;13676;50.168;8.568;2023-02-20T04:32:00;14.20;;;8.40;;
25846;SDS011;13676;50.168;8.568;2023-02-20T04:34:25;13.80;;;8.07;;
25846;SDS011;13676;50.168;8.568;2023-02-20T04:36:52;11.57;;;7.15;;
25846;SDS011;13676;50.168;8.568;2023-02-20T04:39:24;9.95;;;7.32;;
25846;SDS011;13676;50.168;8.568;2023-02-20T04:41:49;11.10;;;7.25;;
25846;SDS011;13676;50.168;8.568;2023-02-20T04:44:15;14.73;;;7.82;;
25846;SDS011;13676;50.168;8.568;2023-02-20T04:46:56;18.02;;;8.27;;
25846;SDS011;13676;50.168;8.568;2023-02-20T04:49:26;11.80;;;7.50;;
25846;SDS011;13676;50.168;8.568;2023-02-20T04:51:51;10.75;;;7.18;;
25846;SDS011;13676;50.168;8.568;2023-02-20T04:54:17;12.10;;;7.35;;
25846;SDS011;13676;50.168;8.568;2023-02-20T04:56:42;10.60;;;7.10;;
25846;SDS011;13676;50.168;8.568;2023-02-20T04:59:07;11.00;;;6.35;;
25846;SDS011;13676;50.168;8.568;2023-02-20T05:01:33;12.95;;;6.75;;
25846;SDS011;13676;50.168;8.568;2023-02-20T05:03:58;11.50;;;7.50;;
25846;SDS011;13676;50.168;8.568;2023-02-20T05:06:23;15.52;;;8.75;;
25846;SDS011;13676;50.168;8.568;2023-02-20T05:08:49;11.00;;;6.78;;
25846;SDS011;13676;50.168;8.568;2023-02-20T05:11:14;11.32;;;7.38;;
25846;SDS011;13676;50.168;8.568;2023-02-20T05:13:40;13.00;;;7.22;;
25846;SDS011;13676;50.168;8.568;2023-02-20T05:16:05;13.60;;;7.03;;
25846;SDS011;13676;50.168;8.568;2023-02-20T05:18:31;10.90;;;7.28;;
25846;SDS011;13676;50.168;8.568;2023-02-20T05:20:56;8.45;;;6.43;;
25846;SDS011;13676;50.168;8.568;2023-02-20T05:23:41;12.02;;;6.28;;
25846;SDS011;13676;50.168;8.568;2023-02-20T05:26:09;8.23;;;5.53;;
25846;SDS011;13676;50.168;8.568;2023-02-20T05:28:35;9.00;;;5.80;;
25846;SDS011;13676;50.168;8.568;2023-02-20T05:31:04;7.57;;;5.85;;
25846;SDS011;13676;50.168;8.568;2023-02-20T05:33:30;10.65;;;6.40;;
25846;SDS011;13676;50.168;8.568;2023-02-20T05:35:55;10.50;;;5.90;;
25846;SDS011;13676;50.168;8.568;2023-02-20T05:38:21;10.20;;;5.72;;
25846;SDS011;13676;50.168;8.568;2023-02-20T05:40:46;12.73;;;4.90;;
25846;SDS011;13676;50.168;8.568;2023-02-20T05:43:11;12.35;;;6.30;;
25846;SDS011;13676;50.168;8.568;2023-02-20T05:45:37;7.90;;;5.18;;
25846;SDS011;13676;50.168;8.568;2023-02-20T05:48:02;10.55;;;5.78;;
25846;SDS011;13676;50.168;8.568;2023-02-20T05:50:28;7.53;;;5.57;;
25846;SDS011;13676;50.168;8.568;2023-02-20T05:52:53;11.85;;;7.00;;
25846;SDS011;13676;50.168;8.568;2023-02-20T05:55:18;12.52;;;6.18;;
25846;SDS011;13676;50.168;8.568;2023-02-20T05:57:44;9.20;;;6.05;;
25846;SDS011;13676;50.168;8.568;2023-02-20T06:00:09;11.00;;;6.20;;
25846;SDS011;13676;50.168;8.568;2023-02-20T06:02:35;10.20;;;5.38;;
25846;SDS011;13676;50.168;8.568;2023-02-20T06:05:01;8.65;;;6.20;;
25846;SDS011;13676;50.168;8.568;2023-02-20T06:07:29;10.38;;;6.07;;
25846;SDS011;13676;50.168;8.568;2023-02-20T06:09:55;8.27;;;5.18;;
25846;SDS011;13676;50.168;8.568;2023-02-20T06:12:20;12.05;;;6.50;;
25846;SDS011;13676;50.168;8.568;2023-02-20T06:14:45;11.73;;;6.72;;
25846;SDS011;13676;50.168;8.568;2023-02-20T06:17:11;12.73;;;6.85;;
25846;SDS011;13676;50.168;8.568;2023-02-20T06:19:36;11.35;;;5.63;;
25846;SDS011;13676;50.168;8.568;2023-02-20T06:22:01;18.25;;;7.15;;
25846;SDS011;13676;50.168;8.568;2023-02-20T06:24:27;15.55;;;7.15;;
25846;SDS011;13676;50.168;8.568;2023-02-20T06:26:53;17.80;;;6.80;;
25846;SDS011;13676;50.168;8.568;2023-02-20T06:29:19;12.20;;;6.93;;
25846;SDS011;13676;50.168;8.568;2023-02-20T06:31:44;10.13;;;6.13;;
25846;SDS011;13676;50.168;8.568;2023-02-20T06:34:10;17.42;;;7.25;;
25846;SDS011;13676;50.168;8.568;2023-02-20T06:36:37;18.38;;;8.05;;
25846;SDS011;13676;50.168;8.568;2023-02-20T06:39:04;14.38;;;8.27;;
25846;SDS011;13676;50.168;8.568;2023-02-20T06:41:31;13.43;;;7.60;;
25846;SDS011;13676;50.168;8.568;2023-02-20T06:43:56;15.73;;;8.00;;
25846;SDS011;13676;50.168;8.568;2023-02-20T06:46:22;18.50;;;8.80;;
25846;SDS011;13676;50.168;8.568;2023-02-20T06:48:48;21.27;;;8.30;;
25846;SDS011;13676;50.168;8.568;2023-02-20T06:53:41;16.13;;;7.90;;
25846;SDS011;13676;50.168;8.568;2023-02-20T06:56:07;17.65;;;7.78;;
25846;SDS011;13676;50.168;8.568;2023-02-20T07:01:00;22.15;;;9.25;;
25846;SDS011;13676;50.168;8.568;2023-02-20T07:03:25;13.48;;;8.05;;
25846;SDS011;13676;50.168;8.568;2023-02-20T07:05:50;23.48;;;7.95;;
25846;SDS011;13676;50.168;8.568;2023-02-20T07:08:16;21.75;;;8.70;;
25846;SDS011;13676;50.168;8.568;2023-02-20T07:10:41;16.27;;;8.02;;
25846;SDS011;13676;50.168;8.568;2023-02-20T07:13:06;17.10;;;8.43;;
25846;SDS011;13676;50.168;8.568;2023-02-20T07:15:32;12.73;;;7.88;;
25846;SDS011;13676;50.168;8.568;2023-02-20T07:17:57;19.88;;;9.27;;
25846;SDS011;13676;50.168;8.568;2023-02-20T07:20:23;16.13;;;8.00;;
25846;SDS011;13676;50.168;8.568;2023-02-20T07:22:51;16.15;;;7.32;;
25846;SDS011;13676;50.168;8.568;2023-02-20T07:25:18;19.60;;;8.27;;
25846;SDS011;13676;50.168;8.568;2023-02-20T07:27:43;19.27;;;8.45;;
25846;SDS011;13676;50.168;8.568;2023-02-20T07:30:09;17.90;;;7.88;;
25846;SDS011;13676;50.168;8.568;2023-02-20T07:32:35;19.13;;;8.43;;
25846;SDS011;13676;50.168;8.568;2023-02-20T07:35:00;18.08;;;7.97;;
25846;SDS011;13676;50.168;8.568;2023-02-20T07:37:25;21.00;;;8.90;;
25846;SDS011;13676;50.168;8.568;2023-02-20T07:39:51;13.98;;;8.20;;
25846;SDS011;13676;50.168;8.568;2023-02-20T07:42:16;16.88;;;8.27;;
25846;SDS011;13676;50.168;8.568;2023-02-20T07:44:45;19.67;;;9.02;;
25846;SDS011;13676;50.168;8.568;2023-02-20T07:47:11;17.15;;;8.10;;
25846;SDS011;13676;50.168;8.568;2023-02-20T07:49:37;20.08;;;8.48;;
25846;SDS011;13676;50.168;8.568;2023-02-20T07:52:02;17.38;;;8.05;;
25846;SDS011;13676;50.168;8.568;2023-02-20T07:54:28;14.23;;;9.15;;
25846;SDS011;13676;50.168;8.568;2023-02-20T07:56:53;16.50;;;8.35;;
25846;SDS011;13676;50.168;8.568;2023-02-20T07:59:19;16.73;;;8.32;;
25846;SDS011;13676;50.168;8.568;2023-02-20T08:01:44;10.30;;;7.20;;
25846;SDS011;13676;50.168;8.568;2023-02-20T08:04:10;13.63;;;7.25;;
25846;SDS011;13676;50.168;8.568;2023-02-20T08:06:35;12.85;;;7.60;;
25846;SDS011;13676;50.168;8.568;2023-02-20T08:09:01;13.98;;;7.38;;
25846;SDS011;13676;50.168;8.568;2023-02-20T08:11:26;16.00;;;7.55;;
25846;SDS011;13676;50.168;8.568;2023-02-20T08:13:51;13.25;;;7.43;;
25846;SDS011;13676;50.168;8.568;2023-02-20T08:16:19;18.48;;;7.32;;
25846;SDS011;13676;50.168;8.568;2023-02-20T08:18:46;12.57;;;6.95;;
25846;SDS011;13676;50.168;8.568;2023-02-20T08:21:11;14.23;;;7.82;;
25846;SDS011;13676;50.168;8.568;2023-02-20T08:23:37;19.08;;;7.43;;
25846;SDS011;13676;50.168;8.568;2023-02-20T08:26:03;13.93;;;7.03;;
25846;SDS011;13676;50.168;8.568;2023-02-20T08:28:29;14.02;;;6.25;;
25846;SDS011;13676;50.168;8.568;2023-02-20T08:30:55;14.30;;;7.18;;
25846;SDS011;13676;50.168;8.568;2023-02-20T08:33:20;11.77;;;6.18;;
25846;SDS011;13676;50.168;8.568;2023-02-20T08:35:47;17.45;;;6.72;;
25846;SDS011;13676;50.168;8.568;2023-02-20T08:38:48;16.90;;;7.28;;
25846;SDS011;13676;50.168;8.568;2023-02-20T08:41:08;12.43;;;6.45;;
25846;SDS011;13676;50.168;8.568;2023-02-20T08:43:35;18.30;;;7.28;;
25846;SDS011;13676;50.168;8.568;2023-02-20T08:46:01;14.37;;;6.40;;
25846;SDS011;13676;50.168;8.568;2023-02-20T08:48:27;17.83;;;7.65;;
25846;SDS011;13676;50.168;8.568;2023-02-20T08:50:53;20.77;;;8.18;;
25846;SDS011;13676;50.168;8.568;2023-02-20T08:53:18;13.35;;;6.28;;
25846;SDS011;13676;50.168;8.568;2023-02-20T08:55:44;14.70;;;7.30;;
25846;SDS011;13676;50.168;8.568;2023-02-20T08:58:10;13.93;;;6.07;;
25846;SDS011;13676;50.168;8.568;2023-02-20T09:00:35;21.85;;;7.43;;
25846;SDS011;13676;50.168;8.568;2023-02-20T09:03:00;17.25;;;6.78;;
25846;SDS011;13676;50.168;8.568;2023-02-20T09:05:26;11.75;;;6.45;;
25846;SDS011;13676;50.168;8.568;2023-02-20T09:07:52;10.95;;;6.55;;
25846;SDS011;13676;50.168;8.568;2023-02-20T09:10:20;20.20;;;7.75;;
25846;SDS011;13676;50.168;8.568;2023-02-20T09:12:46;14.15;;;6.85;;
25846;SDS011;13676;50.168;8.568;2023-02-20T09:15:12;15.05;;;7.03;;
25846;SDS011;13676;50.168;8.568;2023-02-20T09:17:41;20.70;;;8.70;;
25846;SDS011;13676;50.168;8.568;2023-02-20T09:20:08;13.35;;;8.50;;
25846;SDS011;13676;50.168;8.568;2023-02-20T09:22:34;19.67;;;9.20;;
25846;SDS011;13676;50.168;8.568;2023-02-20T09:25:00;19.17;;;7.93;;
25846;SDS011;13676;50.168;8.568;2023-02-20T09:27:26;22.65;;;10.27;;
25846;SDS011;13676;50.168;8.568;2023-02-20T09:29:51;17.63;;;9.55;;
25846;SDS011;13676;50.168;8.568;2023-02-20T09:32:16;21.55;;;9.23;;
25846;SDS011;13676;50.168;8.568;2023-02-20T09:34:42;21.08;;;9.88;;
25846;SDS011;13676;50.168;8.568;2023-02-20T09:37:09;24.55;;;8.77;;
25846;SDS011;13676;50.168;8.568;2023-02-20T09:39:34;25.00;;;11.90;;
25846;SDS011;13676;50.168;8.568;2023-02-20T09:50:02;20.40;;;10.57;;
25846;SDS011;13676;50.168;8.568;2023-02-20T09:52:30;16.27;;;9.20;;
25846;SDS011;13676;50.168;8.568;2023-02-20T09:55:03;13.52;;;7.88;;
25846;SDS011;13676;50.168;8.568;2023-02-20T09:57:30;17.65;;;8.93;;
25846;SDS011;13676;50.168;8.568;2023-02-20T10:02:33;14.45;;;8.13;;
25846;SDS011;13676;50.168;8.568;2023-02-20T10:05:02;18.30;;;9.30;;
25846;SDS011;13676;50.168;8.568;2023-02-20T10:09:57;16.75;;;9.02;;
25846;SDS011;13676;50.168;8.568;2023-02-20T10:20:29;18.05;;;9.98;;
25846;SDS011;13676;50.168;8.568;2023-02-20T10:22:57;16.75;;;9.90;;
25846;SDS011;13676;50.168;8.568;2023-02-20T10:26:12;23.42;;;9.90;;
25846;SDS011;13676;50.168;8.568;2023-02-20T10:28:18;16.80;;;9.07;;
25846;SDS011;13676;50.168;8.568;2023-02-20T10:36:11;25.83;;;9.77;;
25846;SDS011;13676;50.168;8.568;2023-02-20T10:38:51;18.50;;;10.63;;
25846;SDS011;13676;50.168;8.568;2023-02-20T10:41:28;23.35;;;10.02;;
25846;SDS011;13676;50.168;8.568;2023-02-20T10:44:00;22.15;;;10.90;;
25846;SDS011;13676;50.168;8.568;2023-02-20T10:46:31;21.10;;;9.80;;
25846;SDS011;13676;50.168;8.568;2023-02-20T10:49:03;22.83;;;10.38;;
25846;SDS011;13676;50.168;8.568;2023-02-20T10:51:34;18.52;;;7.40;;
25846;SDS011;13676;50.168;8.568;2023-02-20T10:54:06;14.18;;;8.88;;
25846;SDS011;13676;50.168;8.568;2023-02-20T10:57:17;19.65;;;9.68;;
25846;SDS011;13676;50.168;8.568;2023-02-20T11:02:05;18.50;;;10.32;;
25846;SDS011;13676;50.168;8.568;2023-02-20T11:04:40;16.45;;;9.40;;
25846;SDS011;13676;50.168;8.568;2023-02-20T11:07:11;15.20;;;9.93;;
25846;SDS011;13676;50.168;8.568;2023-02-20T11:09:41;18.73;;;9.90;;
25846;SDS011;13676;50.168;8.568;2023-02-20T11:12:07;22.92;;;9.75;;
25846;SDS011;13676;50.168;8.568;2023-02-20T11:14:46;16.88;;;8.30;;
25846;SDS011;13676;50.168;8.568;2023-02-20T11:17:23;12.35;;;7.45;;
25846;SDS011;13676;50.168;8.568;2023-02-20T11:22:18;14.57;;;7.50;;
25846;SDS011;13676;50.168;8.568;2023-02-20T11:25:48;16.05;;;7.22;;
25846;SDS011;13676;50.168;8.568;2023-02-20T11:27:59;15.63;;;7.53;;
25846;SDS011;13676;50.168;8.568;2023-02-20T11:30:45;18.85;;;6.95;;
25846;SDS011;13676;50.168;8.568;2023-02-20T11:33:14;17.83;;;7.03;;
25846;SDS011;13676;50.168;8.568;2023-02-20T11:35:43;14.70;;;6.97;;
25846;SDS011;13676;50.168;8.568;2023-02-20T11:40:41;14.50;;;6.43;;
25846;SDS011;13676;50.168;8.568;2023-02-20T11:45:35;11.40;;;6.10;;
25846;SDS011;13676;50.168;8.568;2023-02-20T11:48:05;11.52;;;5.28;;
25846;SDS011;13676;50.168;8.568;2023-02-20T11:50:42;11.50;;;6.38;;
25846;SDS011;13676;50.168;8.568;2023-02-20T11:53:18;13.73;;;6.18;;
25846;SDS011;13676;50.168;8.568;2023-02-20T11:56:11;16.45;;;6.30;;
25846;SDS011;13676;50.168;8.568;2023-02-20T11:58:39;14.38;;;6.10;;
25846;SDS011;13676;50.168;8.568;2023-02-20T12:01:06;12.82;;;5.55;;
25846;SDS011;13676;50.168;8.568;2023-02-20T12:03:36;14.38;;;6.57;;
25846;SDS011;13676;50.168;8.568;2023-02-20T12:06:26;11.20;;;5.03;;
25846;SDS011;13676;50.168;8.568;2023-02-20T12:08:59;9.93;;;5.47;;
25846;SDS011;13676;50.168;8.568;2023-02-20T12:11:25;12.85;;;5.28;;
25846;SDS011;13676;50.168;8.568;2023-02-20T12:13:52;9.68;;;4.30;;
25846;SDS011;13676;50.168;8.568;2023-02-20T12:22:23;13.82;;;5.20;;
25846;SDS011;13676;50.168;8.568;2023-02-20T12:30:31;11.10;;;4.05;;
25846;SDS011;13676;50.168;8.568;2023-02-20T12:33:17;9.73;;;4.22;;
25846;SDS011;13676;50.168;8.568;2023-02-20T13:03:10;14.18;;;4.88;;
25846;SDS011;13676;50.168;8.568;2023-02-20T13:05:41;10.20;;;5.18;;
25846;SDS011;13676;50.168;8.568;2023-02-20T13:08:15;15.60;;;5.32;;
25846;SDS011;13676;50.168;8.568;2023-02-20T13:11:07;9.85;;;4.50;;
25846;SDS011;13676;50.168;8.568;2023-02-20T13:22:19;9.93;;;4.95;;
25846;SDS011;13676;50.168;8.568;2023-02-20T13:24:44;8.68;;;4.28;;
25846;SDS011;13676;50.168;8.568;2023-02-20T13:27:10;13.30;;;4.18;;
25846;SDS011;13676;50.168;8.568;2023-02-20T13:29:59;11.02;;;3.72;;
25846;SDS011;13676;50.168;8.568;2023-02-20T13:32:27;9.80;;;4.18;;
25846;SDS011;13676;50.168;8.568;2023-02-20T13:34:54;11.23;;;3.80;;
25846;SDS011;13676;50.168;8.568;2023-02-20T13:38:08;9.10;;;4.30;;
25846;SDS011;13676;50.168;8.568;2023-02-20T13:40:45;8.57;;;3.80;;
25846;SDS011;13676;50.168;8.568;2023-02-20T13:43:29;7.00;;;4.03;;
25846;SDS011;13676;50.168;8.568;2023-02-20T13:53:43;10.43;;;3.97;;
25846;SDS011;13676;50.168;8.568;2023-02-20T13:56:14;6.45;;;3.63;;
25846;SDS011;13676;50.168;8.568;2023-02-20T13:58:39;10.63;;;3.83;;
25846;SDS011;13676;50.168;8.568;2023-02-20T14:01:04;10.65;;;4.10;;
25846;SDS011;13676;50.168;8.568;2023-02-20T14:03:31;8.18;;;3.30;;
25846;SDS011;13676;50.168;8.568;2023-02-20T14:08:43;5.13;;;3.20;;
25846;SDS011;13676;50.168;8.568;2023-02-20T14:11:11;9.45;;;3.75;;
25846;SDS011;13676;50.168;8.568;2023-02-20T14:13:37;10.73;;;3.85;;
25846;SDS011;13676;50.168;8.568;2023-02-20T14:16:04;8.23;;;3.42;;
25846;SDS011;13676;50.168;8.568;2023-02-20T14:18:48;7.32;;;3.15;;
25846;SDS011;13676;50.168;8.568;2023-02-20T14:21:15;10.32;;;3.60;;
25846;SDS011;13676;50.168;8.568;2023-02-20T14:23:42;7.97;;;3.38;;
25846;SDS011;13676;50.168;8.568;2023-02-20T14:26:19;10.15;;;3.50;;
25846;SDS011;13676;50.168;8.568;2023-02-20T14:28:49;10.30;;;3.08;;
25846;SDS011;13676;50.168;8.568;2023-02-20T14:34:02;7.18;;;3.03;;
25846;SDS011;13676;50.168;8.568;2023-02-20T14:36:41;4.72;;;2.33;;
25846;SDS011;13676;50.168;8.568;2023-02-20T14:42:00;6.47;;;3.00;;
25846;SDS011;13676;50.168;8.568;2023-02-20T14:44:27;8.15;;;2.60;;
25846;SDS011;13676;50.168;8.568;2023-02-20T14:46:55;10.05;;;2.95;;
25846;SDS011;13676;50.168;8.568;2023-02-20T14:49:29;8.98;;;2.97;;
25846;SDS011;13676;50.168;8.568;2023-02-20T14:54:35;5.43;;;2.33;;
25846;SDS011;13676;50.168;8.568;2023-02-20T14:57:02;5.33;;;2.77;;
25846;SDS011;13676;50.168;8.568;2023-02-20T15:02:00;11.18;;;3.03;;
25846;SDS011;13676;50.168;8.568;2023-02-20T15:04:47;8.73;;;2.40;;
25846;SDS011;13676;50.168;8.568;2023-02-20T15:07:13;8.85;;;2.92;;
25846;SDS011;13676;50.168;8.568;2023-02-20T15:09:40;8.02;;;2.20;;
25846;SDS011;13676;50.168;8.568;2023-02-20T15:12:07;8.43;;;2.30;;
25846;SDS011;13676;50.168;8.568;2023-02-20T15:14:57;6.18;;;2.42;;
25846;SDS011;13676;50.168;8.568;2023-02-20T15:17:26;11.70;;;3.63;;
25846;SDS011;13676;50.168;8.568;2023-02-20T15:19:54;10.15;;;2.22;;
25846;SDS011;13676;50.168;8.568;2023-02-20T15:27:36;8.52;;;2.60;;
25846;SDS011;13676;50.168;8.568;2023-02-20T15:30:15;6.50;;;2.42;;
25846;SDS011;13676;50.168;8.568;2023-02-20T15:32:41;11.40;;;2.75;;
25846;SDS011;13676;50.168;8.568;2023-02-20T15:35:12;5.82;;;2.90;;
25846;SDS011;13676;50.168;8.568;2023-02-20T15:37:40;8.43;;;2.67;;
25846;SDS011;13676;50.168;8.568;2023-02-20T15:42:37;14.77;;;3.00;;
25846;SDS011;13676;50.168;8.568;2023-02-20T15:45:02;8.05;;;3.08;;
25846;SDS011;13676;50.168;8.568;2023-02-20T15:47:28;7.45;;;2.50;;
25846;SDS011;13676;50.168;8.568;2023-02-20T15:49:53;11.60;;;3.20;;
25846;SDS011;13676;50.168;8.568;2023-02-20T15:52:19;5.13;;;2.38;;
25846;SDS011;13676;50.168;8.568;2023-02-20T15:54:46;7.32;;;2.72;;
25846;SDS011;13676;50.168;8.568;2023-02-20T15:57:15;8.45;;;2.80;;
25846;SDS011;13676;50.168;8.568;2023-02-20T15:59:43;12.98;;;2.90;;
25846;SDS011;13676;50.168;8.568;2023-02-20T16:02:14;9.90;;;2.47;;
25846;SDS011;13676;50.168;8.568;2023-02-20T16:04:45;10.93;;;2.60;;
25846;SDS011;13676;50.168;8.568;2023-02-20T16:07:12;7.75;;;2.40;;
25846;SDS011;13676;50.168;8.568;2023-02-20T16:09:37;11.00;;;3.30;;
25846;SDS011;13676;50.168;8.568;2023-02-20T16:12:03;7.70;;;3.05;;
25846;SDS011;13676;50.168;8.568;2023-02-20T16:14:28;7.22;;;2.10;;
25846;SDS011;13676;50.168;8.568;2023-02-20T16:16:54;7.53;;;2.42;;
25846;SDS011;13676;50.168;8.568;2023-02-20T16:19:20;4.72;;;2.10;;
25846;SDS011;13676;50.168;8.568;2023-02-20T16:21:47;7.65;;;2.42;;
25846;SDS011;13676;50.168;8.568;2023-02-20T16:24:13;6.68;;;2.40;;
25846;SDS011;13676;50.168;8.568;2023-02-20T16:26:40;10.60;;;2.85;;
25846;SDS011;13676;50.168;8.568;2023-02-20T16:34:17;7.88;;;2.28;;
25846;SDS011;13676;50.168;8.568;2023-02-20T16:36:43;6.63;;;2.72;;
25846;SDS011;13676;50.168;8.568;2023-02-20T16:39:08;5.10;;;2.10;;
25846;SDS011;13676;50.168;8.568;2023-02-20T16:41:34;6.18;;;2.00;;
25846;SDS011;13676;50.168;8.568;2023-02-20T16:43:59;5.70;;;2.45;;
25846;SDS011;13676;50.168;8.568;2023-02-20T16:46:26;8.93;;;2.53;;
25846;SDS011;13676;50.168;8.568;2023-02-20T16:48:51;7.60;;;2.65;;
25846;SDS011;13676;50.168;8.568;2023-02-20T16:51:17;12.52;;;2.97;;
25846;SDS011;13676;50.168;8.568;2023-02-20T16:53:45;10.15;;;2.53;;
25846;SDS011;13676;50.168;8.568;2023-02-20T16:56:12;5.10;;;2.00;;
25846;SDS011;13676;50.168;8.568;2023-02-20T16:58:38;6.40;;;2.70;;
25846;SDS011;13676;50.168;8.568;2023-02-20T17:01:03;6.53;;;2.60;;
25846;SDS011;13676;50.168;8.568;2023-02-20T17:03:29;7.18;;;2.28;;
25846;SDS011;13676;50.168;8.568;2023-02-20T17:05:56;5.80;;;2.60;;
25846;SDS011;13676;50.168;8.568;2023-02-20T17:08:25;7.70;;;2.17;;
25846;SDS011;13676;50.168;8.568;2023-02-20T17:10:51;5.90;;;2.00;;
25846;SDS011;13676;50.168;8.568;2023-02-20T17:13:16;5.07;;;2.58;;
25846;SDS011;13676;50.168;8.568;2023-02-20T17:15:41;3.83;;;1.98;;
25846;SDS011;13676;50.168;8.568;2023-02-20T17:18:08;8.43;;;2.63;;
25846;SDS011;13676;50.168;8.568;2023-02-20T17:20:34;7.47;;;2.33;;
25846;SDS011;13676;50.168;8.568;2023-02-20T17:22:59;5.82;;;2.30;;